createdAt,value
2024-01-29T00:00:09.650Z,5.70
2024-01-29T00:00:20.804Z,5.70
2024-01-29T00:00:31.782Z,5.80
2024-01-29T00:00:42.578Z,5.70
2024-01-29T00:00:53.212Z,5.60
2024-01-29T00:01:04.309Z,5.70
2024-01-29T00:01:15.201Z,5.70
2024-01-29T00:01:25.745Z,5.50
2024-01-29T00:01:36.741Z,5.80
2024-01-29T00:01:47.538Z,5.90
2024-01-29T00:01:58.076Z,6.30
2024-01-29T00:02:09.003Z,6.10
2024-01-29T00:02:19.775Z,5.90
2024-01-29T00:02:30.827Z,5.30
2024-01-29T00:02:41.781Z,5.60
2024-01-29T00:02:52.616Z,5.70
2024-01-29T00:03:03.621Z,5.80
2024-01-29T00:03:14.597Z,5.80
2024-01-29T00:03:25.491Z,5.60
2024-01-29T00:03:36.060Z,5.50
2024-01-29T00:03:47.058Z,5.30
2024-01-29T00:03:57.946Z,5.10
2024-01-29T00:04:08.621Z,5.30
2024-01-29T00:04:19.140Z,5.40
2024-01-29T00:04:30.070Z,5.70
2024-01-29T00:04:40.798Z,5.60
2024-01-29T00:04:51.435Z,5.50
2024-01-29T00:05:02.182Z,5.40
2024-01-29T00:05:13.241Z,5.30
2024-01-29T00:05:24.225Z,5.70
2024-01-29T00:05:35.000Z,5.50
2024-01-29T00:05:46.087Z,5.40
2024-01-29T00:05:57.063Z,5.50
2024-01-29T00:06:07.879Z,5.70
2024-01-29T00:06:18.435Z,5.80
2024-01-29T00:06:29.493Z,5.50
2024-01-29T00:06:40.317Z,5.40
2024-01-29T00:06:51.092Z,5.20
2024-01-29T00:07:01.530Z,5.30
2024-01-29T00:07:12.525Z,5.40
2024-01-29T00:07:23.285Z,5.40
2024-01-29T00:07:33.725Z,5.20
2024-01-29T00:07:44.472Z,5.40
2024-01-29T00:07:55.509Z,5.20
2024-01-29T00:08:06.472Z,5.30
2024-01-29T00:08:17.248Z,5.20
2024-01-29T00:08:28.298Z,5.40
2024-01-29T00:08:39.263Z,5.80
2024-01-29T00:08:50.029Z,5.80
2024-01-29T00:09:01.031Z,5.70
2024-01-29T00:09:11.981Z,5.60
2024-01-29T00:09:22.787Z,5.30
2024-01-29T00:09:33.341Z,5.20
2024-01-29T00:09:44.334Z,5.00
2024-01-29T00:09:55.092Z,5.10
2024-01-29T00:10:05.721Z,5.30
2024-01-29T00:10:16.686Z,5.40
2024-01-29T00:10:27.681Z,5.50
2024-01-29T00:10:38.294Z,5.30
2024-01-29T00:10:49.304Z,5.20
2024-01-29T00:11:00.423Z,5.20
2024-01-29T00:11:11.120Z,5.10
2024-01-29T00:11:21.603Z,5.20
2024-01-29T00:11:32.590Z,5.10
2024-01-29T00:11:43.256Z,5.50
2024-01-29T00:11:53.841Z,5.70
2024-01-29T00:12:05.009Z,5.50
2024-01-29T00:12:15.542Z,5.40
2024-01-29T00:12:26.579Z,5.50
2024-01-29T00:12:37.393Z,5.50
2024-01-29T00:12:48.039Z,5.50
2024-01-29T00:12:59.205Z,5.60
2024-01-29T00:13:10.017Z,5.70
2024-01-29T00:13:20.510Z,5.70
2024-01-29T00:13:31.472Z,5.60
2024-01-29T00:13:42.273Z,5.50
2024-01-29T00:13:53.322Z,5.50
2024-01-29T00:14:04.282Z,5.30
2024-01-29T00:14:15.045Z,5.10
2024-01-29T00:14:26.096Z,5.00
2024-01-29T00:14:37.055Z,5.10
2024-01-29T00:14:47.823Z,5.40
2024-01-29T00:14:58.883Z,5.30
2024-01-29T00:15:09.850Z,5.60
2024-01-29T00:15:20.626Z,5.50
2024-01-29T00:15:31.643Z,5.30
2024-01-29T00:15:42.657Z,5.10
2024-01-29T00:15:53.492Z,5.10
2024-01-29T00:16:04.016Z,5.20
2024-01-29T00:16:14.954Z,5.50
2024-01-29T00:16:25.716Z,5.50
2024-01-29T00:16:36.768Z,5.30
2024-01-29T00:16:47.736Z,5.40
2024-01-29T00:16:58.494Z,5.20
2024-01-29T00:17:09.538Z,5.20
2024-01-29T00:17:20.544Z,4.90
2024-01-29T00:17:31.307Z,5.20
2024-01-29T00:17:41.913Z,5.10
2024-01-29T00:17:52.895Z,5.20
2024-01-29T00:18:03.689Z,5.00
2024-01-29T00:18:14.709Z,5.40
2024-01-29T00:18:25.784Z,5.30
2024-01-29T00:18:36.618Z,5.40
2024-01-29T00:18:47.168Z,5.00
2024-01-29T00:18:58.146Z,5.20
2024-01-29T00:19:09.050Z,5.10
2024-01-29T00:19:19.673Z,5.10
2024-01-29T00:19:30.263Z,5.00
2024-01-29T00:19:41.146Z,5.50
2024-01-29T00:19:51.895Z,5.70
2024-01-29T00:20:02.404Z,5.70
2024-01-29T00:20:13.192Z,5.20
2024-01-29T00:20:24.214Z,5.20
2024-01-29T00:20:35.177Z,5.00
2024-01-29T00:20:45.938Z,5.00
2024-01-29T00:20:56.992Z,5.00
2024-01-29T00:21:07.922Z,5.10
2024-01-29T00:21:18.818Z,5.20
2024-01-29T00:21:29.341Z,4.90
2024-01-29T00:21:40.318Z,5.10
2024-01-29T00:21:51.100Z,5.10
2024-01-29T00:22:01.680Z,5.00
2024-01-29T00:22:12.650Z,4.90
2024-01-29T00:22:23.408Z,5.20
2024-01-29T00:22:34.456Z,5.70
2024-01-29T00:22:45.422Z,5.60
2024-01-29T00:22:56.183Z,5.50
2024-01-29T00:23:07.238Z,5.20
2024-01-29T00:23:18.193Z,5.20
2024-01-29T00:23:28.957Z,5.40
2024-01-29T00:23:39.997Z,5.40
2024-01-29T00:23:50.963Z,5.60
2024-01-29T00:24:01.933Z,5.80
2024-01-29T00:24:12.559Z,6.00
2024-01-29T00:24:23.524Z,5.50
2024-01-29T00:24:34.293Z,5.30
2024-01-29T00:24:45.324Z,5.10
2024-01-29T00:24:56.327Z,5.50
2024-01-29T00:25:07.319Z,5.30
2024-01-29T00:25:18.353Z,5.70
2024-01-29T00:25:29.328Z,5.70
2024-01-29T00:25:40.111Z,5.60
2024-01-29T00:25:51.126Z,5.40
2024-01-29T00:26:02.115Z,5.30
2024-01-29T00:26:12.876Z,5.20
2024-01-29T00:26:23.921Z,5.30
2024-01-29T00:26:34.928Z,5.40
2024-01-29T00:26:45.680Z,5.60
2024-01-29T00:26:56.720Z,5.40
2024-01-29T00:27:07.691Z,5.40
2024-01-29T00:27:18.619Z,5.40
2024-01-29T00:27:29.107Z,5.70
2024-01-29T00:27:40.069Z,5.50
2024-01-29T00:27:50.845Z,5.40
2024-01-29T00:28:01.650Z,5.30
2024-01-29T00:28:12.169Z,5.30
2024-01-29T00:28:22.908Z,5.70
2024-01-29T00:28:33.947Z,5.90
2024-01-29T00:28:44.918Z,5.50
2024-01-29T00:28:55.678Z,5.10
2024-01-29T00:29:06.646Z,4.90
2024-01-29T00:29:17.589Z,4.60
2024-01-29T00:29:28.338Z,4.80
2024-01-29T00:29:39.387Z,4.70
2024-01-29T00:29:50.350Z,5.00
2024-01-29T00:30:01.037Z,5.00
2024-01-29T00:30:12.102Z,5.10
2024-01-29T00:30:23.070Z,4.90
2024-01-29T00:30:33.857Z,4.90
2024-01-29T00:30:44.856Z,5.10
2024-01-29T00:30:55.857Z,4.90
2024-01-29T00:31:06.978Z,4.80
2024-01-29T00:31:17.493Z,4.80
2024-01-29T00:31:28.445Z,5.10
2024-01-29T00:31:39.211Z,5.20
2024-01-29T00:31:50.294Z,5.20
2024-01-29T00:32:01.219Z,4.90
2024-01-29T00:32:11.960Z,4.80
2024-01-29T00:32:23.033Z,4.60
2024-01-29T00:32:34.090Z,4.70
2024-01-29T00:32:44.896Z,4.90
2024-01-29T00:32:55.460Z,4.90
2024-01-29T00:33:06.527Z,4.90
2024-01-29T00:33:17.356Z,5.30
2024-01-29T00:33:27.977Z,5.10
2024-01-29T00:33:38.634Z,4.90
2024-01-29T00:33:49.639Z,4.70
2024-01-29T00:34:00.404Z,4.70
2024-01-29T00:34:11.189Z,4.60
2024-01-29T00:34:22.109Z,4.80
2024-01-29T00:34:32.634Z,4.70
2024-01-29T00:34:43.653Z,4.60
2024-01-29T00:34:54.387Z,4.30
2024-01-29T00:35:05.430Z,4.40
2024-01-29T00:35:16.392Z,4.20
2024-01-29T00:35:27.152Z,4.40
2024-01-29T00:35:38.202Z,4.50
2024-01-29T00:35:49.264Z,4.60
2024-01-29T00:36:00.032Z,4.80
2024-01-29T00:36:11.097Z,5.00
2024-01-29T00:36:22.093Z,5.10
2024-01-29T00:36:32.874Z,4.80
2024-01-29T00:36:43.916Z,4.60
2024-01-29T00:36:54.868Z,4.50
2024-01-29T00:37:05.606Z,4.60
2024-01-29T00:37:16.145Z,4.80
2024-01-29T00:37:27.110Z,5.10
2024-01-29T00:37:37.903Z,4.70
2024-01-29T00:37:48.923Z,4.60
2024-01-29T00:37:59.888Z,4.50
2024-01-29T00:38:10.665Z,4.40
2024-01-29T00:38:21.700Z,4.40
2024-01-29T00:38:32.677Z,4.60
2024-01-29T00:38:43.430Z,4.60
2024-01-29T00:38:54.494Z,4.70
2024-01-29T00:39:05.460Z,4.40
2024-01-29T00:39:16.214Z,4.50
2024-01-29T00:39:27.268Z,4.40
2024-01-29T00:39:38.244Z,4.40
2024-01-29T00:39:49.029Z,4.60
2024-01-29T00:40:00.077Z,4.80
2024-01-29T00:40:11.121Z,5.00
2024-01-29T00:40:21.847Z,5.30
2024-01-29T00:40:32.905Z,5.00
2024-01-29T00:40:43.865Z,4.90
2024-01-29T00:40:54.637Z,4.40
2024-01-29T00:41:05.675Z,4.40
2024-01-29T00:41:16.668Z,4.80
2024-01-29T00:41:27.418Z,5.20
2024-01-29T00:41:38.466Z,5.40
2024-01-29T00:41:49.433Z,5.30
2024-01-29T00:42:00.199Z,5.00
2024-01-29T00:42:11.246Z,4.90
2024-01-29T00:42:22.254Z,4.70
2024-01-29T00:42:33.047Z,4.60
2024-01-29T00:42:44.093Z,4.80
2024-01-29T00:42:55.044Z,4.90
2024-01-29T00:43:05.888Z,4.80
2024-01-29T00:43:16.428Z,4.60
2024-01-29T00:43:27.392Z,4.70
2024-01-29T00:43:38.156Z,4.90
2024-01-29T00:43:49.202Z,5.20
2024-01-29T00:44:00.168Z,4.90
2024-01-29T00:44:10.935Z,5.40
2024-01-29T00:44:21.985Z,4.90
2024-01-29T00:44:32.962Z,4.90
2024-01-29T00:44:43.720Z,4.70
2024-01-29T00:44:54.765Z,4.90
2024-01-29T00:45:05.731Z,5.10
2024-01-29T00:45:16.509Z,4.90
2024-01-29T00:45:27.548Z,4.60
2024-01-29T00:45:38.528Z,4.70
2024-01-29T00:45:49.329Z,4.80
2024-01-29T00:45:59.865Z,5.10
2024-01-29T00:46:10.867Z,5.30
2024-01-29T00:46:21.627Z,5.00
2024-01-29T00:46:32.672Z,4.80
2024-01-29T00:46:43.662Z,4.60
2024-01-29T00:46:54.419Z,4.80
2024-01-29T00:47:05.471Z,4.80
2024-01-29T00:47:16.437Z,4.80
2024-01-29T00:47:27.313Z,4.80
2024-01-29T00:47:37.848Z,5.00
2024-01-29T00:47:48.811Z,5.10
2024-01-29T00:47:59.626Z,5.30
2024-01-29T00:48:10.674Z,5.20
2024-01-29T00:48:21.675Z,5.10
2024-01-29T00:48:32.553Z,5.00
2024-01-29T00:48:43.131Z,5.40
2024-01-29T00:48:54.187Z,5.50
2024-01-29T00:49:05.056Z,5.50
2024-01-29T00:49:15.719Z,5.70
2024-01-29T00:49:26.199Z,6.00
2024-01-29T00:49:37.119Z,6.10
2024-01-29T00:49:47.860Z,6.10
2024-01-29T00:49:58.360Z,6.70
2024-01-29T00:50:09.092Z,6.60
2024-01-29T00:50:20.136Z,7.10
2024-01-29T00:50:31.121Z,6.80
2024-01-29T00:50:41.884Z,6.90
2024-01-29T00:50:52.932Z,6.60
2024-01-29T00:51:03.914Z,7.00
2024-01-29T00:51:14.679Z,6.90
2024-01-29T00:51:25.773Z,6.40
2024-01-29T00:51:36.748Z,5.90
2024-01-29T00:51:47.536Z,5.80
2024-01-29T00:51:58.684Z,6.40
2024-01-29T00:52:09.299Z,6.90
2024-01-29T00:52:20.021Z,6.90
2024-01-29T00:52:31.066Z,6.70
2024-01-29T00:52:42.030Z,6.80
2024-01-29T00:52:52.797Z,6.80
2024-01-29T00:53:03.847Z,6.80
2024-01-29T00:53:14.805Z,6.70
2024-01-29T00:53:25.568Z,7.20
2024-01-29T00:53:36.130Z,7.30
2024-01-29T00:53:47.107Z,7.10
2024-01-29T00:53:57.858Z,6.50
2024-01-29T00:54:08.907Z,6.50
2024-01-29T00:54:19.916Z,6.80
2024-01-29T00:54:30.667Z,7.10
2024-01-29T00:54:41.720Z,6.80
2024-01-29T00:54:52.690Z,6.80
2024-01-29T00:55:03.519Z,6.80
2024-01-29T00:55:13.982Z,6.60
2024-01-29T00:55:24.950Z,6.70
2024-01-29T00:55:35.715Z,7.00
2024-01-29T00:55:46.767Z,6.90
2024-01-29T00:55:57.772Z,6.20
2024-01-29T00:56:08.501Z,6.30
2024-01-29T00:56:19.543Z,6.30
2024-01-29T00:56:30.526Z,6.70
2024-01-29T00:56:41.291Z,6.50
2024-01-29T00:56:52.334Z,6.40
2024-01-29T00:57:03.309Z,6.20
2024-01-29T00:57:14.072Z,6.30
2024-01-29T00:57:25.156Z,6.00
2024-01-29T00:57:36.202Z,6.00
2024-01-29T00:57:46.990Z,5.80
2024-01-29T00:57:58.030Z,5.90
2024-01-29T00:58:09.002Z,6.00
2024-01-29T00:58:19.724Z,6.10
2024-01-29T00:58:30.771Z,6.40
2024-01-29T00:58:41.735Z,6.10
2024-01-29T00:58:52.510Z,6.10
2024-01-29T00:59:03.553Z,6.00
2024-01-29T00:59:14.548Z,6.40
2024-01-29T00:59:25.362Z,6.10
2024-01-29T00:59:36.341Z,6.30
2024-01-29T00:59:47.323Z,6.00
2024-01-29T00:59:58.067Z,6.00
2024-01-29T01:00:09.115Z,5.90
2024-01-29T01:00:20.151Z,5.90
2024-01-29T01:00:31.011Z,6.00
2024-01-29T01:00:41.543Z,6.10
2024-01-29T01:00:52.731Z,6.20
2024-01-29T01:01:03.716Z,5.90
2024-01-29T01:01:14.264Z,5.80
2024-01-29T01:01:25.319Z,5.90
2024-01-29T01:01:36.229Z,5.80
2024-01-29T01:01:46.769Z,5.50
2024-01-29T01:01:57.764Z,5.50
2024-01-29T01:02:08.505Z,5.50
2024-01-29T01:02:19.556Z,5.50
2024-01-29T01:02:30.525Z,5.40
2024-01-29T01:02:41.308Z,5.70
2024-01-29T01:02:52.335Z,5.80
2024-01-29T01:03:03.295Z,5.90
2024-01-29T01:03:14.068Z,5.90
2024-01-29T01:03:25.328Z,5.70
2024-01-29T01:03:35.963Z,5.70
2024-01-29T01:03:46.781Z,5.50
2024-01-29T01:03:57.354Z,5.60
2024-01-29T01:04:08.415Z,6.00
2024-01-29T01:04:19.326Z,5.90
2024-01-29T01:04:29.929Z,5.60
2024-01-29T01:04:40.556Z,5.70
2024-01-29T01:04:51.423Z,5.70
2024-01-29T01:05:02.145Z,5.60
2024-01-29T01:05:12.809Z,5.70
2024-01-29T01:05:23.669Z,5.80
2024-01-29T01:05:34.176Z,6.10
2024-01-29T01:05:45.247Z,6.20
2024-01-29T01:05:56.020Z,6.10
2024-01-29T01:06:06.810Z,5.90
2024-01-29T01:06:17.347Z,5.90
2024-01-29T01:06:28.099Z,5.90
2024-01-29T01:06:39.186Z,6.10
2024-01-29T01:06:50.191Z,6.10
2024-01-29T01:07:00.930Z,6.60
2024-01-29T01:07:12.067Z,6.30
2024-01-29T01:07:22.986Z,6.20
2024-01-29T01:07:33.750Z,6.00
2024-01-29T01:07:44.798Z,6.30
2024-01-29T01:07:55.777Z,6.70
2024-01-29T01:08:06.529Z,6.70
2024-01-29T01:08:17.587Z,6.70
2024-01-29T01:08:28.537Z,6.30
2024-01-29T01:08:39.305Z,6.10
2024-01-29T01:08:50.352Z,5.70
2024-01-29T01:09:01.319Z,6.00
2024-01-29T01:09:12.085Z,5.80
2024-01-29T01:09:23.180Z,5.70
2024-01-29T01:09:34.137Z,5.50
2024-01-29T01:09:44.912Z,5.80
2024-01-29T01:09:55.994Z,5.90
2024-01-29T01:10:06.978Z,5.70
2024-01-29T01:10:17.710Z,5.30
2024-01-29T01:10:28.757Z,5.30
2024-01-29T01:10:39.717Z,5.40
2024-01-29T01:10:50.484Z,5.60
2024-01-29T01:11:01.530Z,5.70
2024-01-29T01:11:12.500Z,5.70
2024-01-29T01:11:23.270Z,6.30
2024-01-29T01:11:34.309Z,6.20
2024-01-29T01:11:45.285Z,6.40
2024-01-29T01:11:56.055Z,6.10
2024-01-29T01:12:07.102Z,6.30
2024-01-29T01:12:18.081Z,6.30
2024-01-29T01:12:28.883Z,6.40
2024-01-29T01:12:39.911Z,6.70
2024-01-29T01:12:50.861Z,6.60
2024-01-29T01:13:01.682Z,6.50
2024-01-29T01:13:12.702Z,6.10
2024-01-29T01:13:23.682Z,5.70
2024-01-29T01:13:34.429Z,5.90
2024-01-29T01:13:45.479Z,6.30
2024-01-29T01:13:56.443Z,6.70
2024-01-29T01:14:07.421Z,6.60
2024-01-29T01:14:18.472Z,6.60
2024-01-29T01:14:29.433Z,6.30
2024-01-29T01:14:40.191Z,6.30
2024-01-29T01:14:51.247Z,6.50
2024-01-29T01:15:02.210Z,6.60
2024-01-29T01:15:13.045Z,6.80
2024-01-29T01:15:24.099Z,6.30
2024-01-29T01:15:35.086Z,6.10
2024-01-29T01:15:45.909Z,6.00
2024-01-29T01:15:56.505Z,6.10
2024-01-29T01:16:07.530Z,5.90
2024-01-29T01:16:18.299Z,5.70
2024-01-29T01:16:29.343Z,6.10
2024-01-29T01:16:40.303Z,6.00
2024-01-29T01:16:51.110Z,5.70
2024-01-29T01:17:01.740Z,5.60
2024-01-29T01:17:12.698Z,5.60
2024-01-29T01:17:23.483Z,5.60
2024-01-29T01:17:34.562Z,5.20
2024-01-29T01:17:45.528Z,5.50
2024-01-29T01:17:56.258Z,5.60
2024-01-29T01:18:07.353Z,5.90
2024-01-29T01:18:18.282Z,5.80
2024-01-29T01:18:29.107Z,5.60
2024-01-29T01:18:39.643Z,5.30
2024-01-29T01:18:50.702Z,5.00
2024-01-29T01:19:01.533Z,5.00
2024-01-29T01:19:12.611Z,5.20
2024-01-29T01:19:23.710Z,5.00
2024-01-29T01:19:34.786Z,5.10
2024-01-29T01:19:45.443Z,5.20
2024-01-29T01:19:56.474Z,5.20
2024-01-29T01:20:07.373Z,5.30
2024-01-29T01:20:18.026Z,5.40
2024-01-29T01:20:28.990Z,5.30
2024-01-29T01:20:39.752Z,5.30
2024-01-29T01:20:50.795Z,5.50
2024-01-29T01:21:01.761Z,5.60
2024-01-29T01:21:12.526Z,5.60
2024-01-29T01:21:23.586Z,5.60
2024-01-29T01:21:34.577Z,5.60
2024-01-29T01:21:45.376Z,5.60
2024-01-29T01:21:56.480Z,5.60
2024-01-29T01:22:07.465Z,5.60
2024-01-29T01:22:18.213Z,5.60
2024-01-29T01:22:29.267Z,5.80
2024-01-29T01:22:40.225Z,5.70
2024-01-29T01:22:50.988Z,6.00
2024-01-29T01:23:02.033Z,5.90
2024-01-29T01:23:13.119Z,5.70
2024-01-29T01:23:23.858Z,5.50
2024-01-29T01:23:34.888Z,5.30
2024-01-29T01:23:45.853Z,5.40
2024-01-29T01:23:56.637Z,5.50
2024-01-29T01:24:07.597Z,5.10
2024-01-29T01:24:18.573Z,4.90
2024-01-29T01:24:29.345Z,4.90
2024-01-29T01:24:40.445Z,5.50
2024-01-29T01:24:51.407Z,5.60
2024-01-29T01:25:02.314Z,5.40
2024-01-29T01:25:12.843Z,5.00
2024-01-29T01:25:23.757Z,4.90
2024-01-29T01:25:34.523Z,4.90
2024-01-29T01:25:45.566Z,5.00
2024-01-29T01:25:56.541Z,5.10
2024-01-29T01:26:07.524Z,5.20
2024-01-29T01:26:18.575Z,5.30
2024-01-29T01:26:29.542Z,5.60
2024-01-29T01:26:40.309Z,5.40
2024-01-29T01:26:51.357Z,5.20
2024-01-29T01:27:02.328Z,5.00
2024-01-29T01:27:13.170Z,4.70
2024-01-29T01:27:23.793Z,4.60
2024-01-29T01:27:34.766Z,4.80
2024-01-29T01:27:45.594Z,5.20
2024-01-29T01:27:56.149Z,5.30
2024-01-29T01:28:07.075Z,5.10
2024-01-29T01:28:17.813Z,4.90
2024-01-29T01:28:28.861Z,4.60
2024-01-29T01:28:39.852Z,4.50
2024-01-29T01:28:50.605Z,4.50
2024-01-29T01:29:01.664Z,4.80
2024-01-29T01:29:12.631Z,4.60
2024-01-29T01:29:23.389Z,4.60
2024-01-29T01:29:34.438Z,4.50
2024-01-29T01:29:45.405Z,4.60
2024-01-29T01:29:56.183Z,4.80
2024-01-29T01:30:07.211Z,4.90
2024-01-29T01:30:18.148Z,4.90
2024-01-29T01:30:28.952Z,4.90
2024-01-29T01:30:39.987Z,4.80
2024-01-29T01:30:50.967Z,4.80
2024-01-29T01:31:01.806Z,5.00
2024-01-29T01:31:12.346Z,4.90
2024-01-29T01:31:23.307Z,4.90
2024-01-29T01:31:34.093Z,4.60
2024-01-29T01:31:45.145Z,4.50
2024-01-29T01:31:56.104Z,4.40
2024-01-29T01:32:06.919Z,4.60
2024-01-29T01:32:17.960Z,4.60
2024-01-29T01:32:29.059Z,4.90
2024-01-29T01:32:39.864Z,4.90
2024-01-29T01:32:50.415Z,5.10
2024-01-29T01:33:01.377Z,4.80
2024-01-29T01:33:12.164Z,4.80
2024-01-29T01:33:23.215Z,5.10
2024-01-29T01:33:34.147Z,5.30
2024-01-29T01:33:44.955Z,5.00
2024-01-29T01:33:55.538Z,4.90
2024-01-29T01:34:06.566Z,5.10
2024-01-29T01:34:17.538Z,5.30
2024-01-29T01:34:28.154Z,5.40
2024-01-29T01:34:39.298Z,4.90
2024-01-29T01:34:50.154Z,4.80
2024-01-29T01:35:01.322Z,4.60
2024-01-29T01:35:11.871Z,4.40
2024-01-29T01:35:22.579Z,4.80
2024-01-29T01:35:33.630Z,5.00
2024-01-29T01:35:44.603Z,5.00
2024-01-29T01:35:55.414Z,5.30
2024-01-29T01:36:06.419Z,5.30
2024-01-29T01:36:17.380Z,5.50
2024-01-29T01:36:28.176Z,5.10
2024-01-29T01:36:39.223Z,5.20
2024-01-29T01:36:50.216Z,4.90
2024-01-29T01:37:01.014Z,5.10
2024-01-29T01:37:11.604Z,4.90
2024-01-29T01:37:22.553Z,5.10
2024-01-29T01:37:33.410Z,5.00
2024-01-29T01:37:43.872Z,5.10
2024-01-29T01:37:54.829Z,5.00
2024-01-29T01:38:05.598Z,5.00
2024-01-29T01:38:16.639Z,5.20
2024-01-29T01:38:27.605Z,5.10
2024-01-29T01:38:38.368Z,4.90
2024-01-29T01:38:49.413Z,4.80
2024-01-29T01:39:00.380Z,4.90
2024-01-29T01:39:11.146Z,4.90
2024-01-29T01:39:22.251Z,5.10
2024-01-29T01:39:33.240Z,5.00
2024-01-29T01:39:44.052Z,4.90
2024-01-29T01:39:54.804Z,5.00
2024-01-29T01:40:05.433Z,4.90
2024-01-29T01:40:16.189Z,4.60
2024-01-29T01:40:27.230Z,4.20
2024-01-29T01:40:38.208Z,4.50
2024-01-29T01:40:49.248Z,4.90
2024-01-29T01:40:59.741Z,4.90
2024-01-29T01:41:10.690Z,4.80
2024-01-29T01:41:21.495Z,4.60
2024-01-29T01:41:32.517Z,4.50
2024-01-29T01:41:43.472Z,4.50
2024-01-29T01:41:54.242Z,4.70
2024-01-29T01:42:05.325Z,4.80
2024-01-29T01:42:16.276Z,4.90
2024-01-29T01:42:27.131Z,4.80
2024-01-29T01:42:37.654Z,4.70
2024-01-29T01:42:48.618Z,4.50
2024-01-29T01:42:59.384Z,4.50
2024-01-29T01:43:10.456Z,4.50
2024-01-29T01:43:21.402Z,4.50
2024-01-29T01:43:32.144Z,4.70
2024-01-29T01:43:43.193Z,4.80
2024-01-29T01:43:54.170Z,4.50
2024-01-29T01:44:04.932Z,4.50
2024-01-29T01:44:15.996Z,4.80
2024-01-29T01:44:26.961Z,4.90
2024-01-29T01:44:37.717Z,4.60
2024-01-29T01:44:48.548Z,4.60
2024-01-29T01:44:59.511Z,4.60
2024-01-29T01:45:10.275Z,4.50
2024-01-29T01:45:21.370Z,4.40
2024-01-29T01:45:32.452Z,4.40
2024-01-29T01:45:43.290Z,4.20
2024-01-29T01:45:54.410Z,4.40
2024-01-29T01:46:05.598Z,4.40
2024-01-29T01:46:16.529Z,4.40
2024-01-29T01:46:27.183Z,4.50
2024-01-29T01:46:37.859Z,4.60
2024-01-29T01:46:48.900Z,4.70
2024-01-29T01:46:59.505Z,4.70
2024-01-29T01:47:10.424Z,4.70
2024-01-29T01:47:21.231Z,4.80
2024-01-29T01:47:32.300Z,4.80
2024-01-29T01:47:43.363Z,5.00
2024-01-29T01:47:54.166Z,4.90
2024-01-29T01:48:04.663Z,4.90
2024-01-29T01:48:15.592Z,4.40
2024-01-29T01:48:26.458Z,4.40
2024-01-29T01:48:37.177Z,4.40
2024-01-29T01:48:47.896Z,4.40
2024-01-29T01:48:58.695Z,4.60
2024-01-29T01:49:09.784Z,4.30
2024-01-29T01:49:20.920Z,4.30
2024-01-29T01:49:31.804Z,4.30
2024-01-29T01:49:42.502Z,4.40
2024-01-29T01:49:53.074Z,4.20
2024-01-29T01:50:03.917Z,4.10
2024-01-29T01:50:14.952Z,4.30
2024-01-29T01:50:25.904Z,4.40
2024-01-29T01:50:36.658Z,4.60
2024-01-29T01:50:47.703Z,4.40
2024-01-29T01:50:58.671Z,4.50
2024-01-29T01:51:09.431Z,4.40
2024-01-29T01:51:20.489Z,4.40
2024-01-29T01:51:31.465Z,4.20
2024-01-29T01:51:42.259Z,4.30
2024-01-29T01:51:53.332Z,4.30
2024-01-29T01:52:04.352Z,4.20
2024-01-29T01:52:15.218Z,4.10
2024-01-29T01:52:25.703Z,4.10
2024-01-29T01:52:36.664Z,4.10
2024-01-29T01:52:47.427Z,4.20
2024-01-29T01:52:58.470Z,4.10
2024-01-29T01:53:09.448Z,4.00
2024-01-29T01:53:20.201Z,4.10
2024-01-29T01:53:31.253Z,4.40
2024-01-29T01:53:42.212Z,4.40
2024-01-29T01:53:52.979Z,4.20
2024-01-29T01:54:04.019Z,4.20
2024-01-29T01:54:14.986Z,4.30
2024-01-29T01:54:25.772Z,4.30
2024-01-29T01:54:36.814Z,4.30
2024-01-29T01:54:47.842Z,4.10
2024-01-29T01:54:58.711Z,4.00
2024-01-29T01:55:09.398Z,4.00
2024-01-29T01:55:19.818Z,4.20
2024-01-29T01:55:30.583Z,4.50
2024-01-29T01:55:41.625Z,4.50
2024-01-29T01:55:52.607Z,4.40
2024-01-29T01:56:03.369Z,4.40
2024-01-29T01:56:14.412Z,4.20
2024-01-29T01:56:25.400Z,4.00
2024-01-29T01:56:36.153Z,3.90
2024-01-29T01:56:47.199Z,4.00
2024-01-29T01:56:58.157Z,4.30
2024-01-29T01:57:08.941Z,4.50
2024-01-29T01:57:20.015Z,4.20
2024-01-29T01:57:30.993Z,4.10
2024-01-29T01:57:41.758Z,4.20
2024-01-29T01:57:52.799Z,4.70
2024-01-29T01:58:03.799Z,4.40
2024-01-29T01:58:14.609Z,4.20
2024-01-29T01:58:25.647Z,3.90
2024-01-29T01:58:36.620Z,3.90
2024-01-29T01:58:47.382Z,3.90
2024-01-29T01:58:58.427Z,4.10
2024-01-29T01:59:09.392Z,4.00
2024-01-29T01:59:20.158Z,4.20
2024-01-29T01:59:31.206Z,4.00
2024-01-29T01:59:42.850Z,4.10
2024-01-29T01:59:53.273Z,3.60
2024-01-29T02:00:04.378Z,3.70
2024-01-29T02:00:15.310Z,4.00
2024-01-29T02:00:26.094Z,4.10
2024-01-29T02:00:37.250Z,4.10
2024-01-29T02:00:48.272Z,3.90
2024-01-29T02:00:59.094Z,3.90
2024-01-29T02:01:10.221Z,4.00
2024-01-29T02:01:20.744Z,4.00
2024-01-29T02:01:31.591Z,3.90
2024-01-29T02:01:42.235Z,4.00
2024-01-29T02:01:53.239Z,4.10
2024-01-29T02:02:03.948Z,4.10
2024-01-29T02:02:15.000Z,3.70
2024-01-29T02:02:25.961Z,3.70
2024-01-29T02:02:36.835Z,3.80
2024-01-29T02:02:47.540Z,4.00
2024-01-29T02:02:58.479Z,4.00
2024-01-29T02:03:09.257Z,3.80
2024-01-29T02:03:20.322Z,3.70
2024-01-29T02:03:31.317Z,3.80
2024-01-29T02:03:42.387Z,4.00
2024-01-29T02:03:53.010Z,3.80
2024-01-29T02:04:03.652Z,3.90
2024-01-29T02:04:14.491Z,3.90
2024-01-29T02:04:25.605Z,3.80
2024-01-29T02:04:36.629Z,3.80
2024-01-29T02:04:47.382Z,3.80
2024-01-29T02:04:58.598Z,3.80
2024-01-29T02:05:09.232Z,3.80
2024-01-29T02:05:20.064Z,3.90
2024-01-29T02:05:31.118Z,3.80
2024-01-29T02:05:42.093Z,3.70
2024-01-29T02:05:52.908Z,3.70
2024-01-29T02:06:03.530Z,4.00
2024-01-29T02:06:14.074Z,3.90
2024-01-29T02:06:24.845Z,3.90
2024-01-29T02:06:35.898Z,3.70
2024-01-29T02:06:46.872Z,3.70
2024-01-29T02:06:57.706Z,3.80
2024-01-29T02:07:08.238Z,3.90
2024-01-29T02:07:19.436Z,4.10
2024-01-29T02:07:30.403Z,3.80
2024-01-29T02:07:40.924Z,3.90
2024-01-29T02:07:51.885Z,3.80
2024-01-29T02:08:02.764Z,4.00
2024-01-29T02:08:13.783Z,4.10
2024-01-29T02:08:24.799Z,4.00
2024-01-29T02:08:35.525Z,4.10
2024-01-29T02:08:46.581Z,4.00
2024-01-29T02:08:57.535Z,3.90
2024-01-29T02:09:08.263Z,3.70
2024-01-29T02:09:19.311Z,3.50
2024-01-29T02:09:30.323Z,3.30
2024-01-29T02:09:41.109Z,3.50
2024-01-29T02:09:52.136Z,3.60
2024-01-29T02:10:03.111Z,3.80
2024-01-29T02:10:13.853Z,3.80
2024-01-29T02:10:24.899Z,3.70
2024-01-29T02:10:35.866Z,3.70
2024-01-29T02:10:46.627Z,4.00
2024-01-29T02:10:57.681Z,3.70
2024-01-29T02:11:08.677Z,4.00
2024-01-29T02:11:19.464Z,3.80
2024-01-29T02:11:30.484Z,3.80
2024-01-29T02:11:41.456Z,3.80
2024-01-29T02:11:52.224Z,3.80
2024-01-29T02:12:03.264Z,3.70
2024-01-29T02:12:14.260Z,3.70
2024-01-29T02:12:25.056Z,3.40
2024-01-29T02:12:36.092Z,3.50
2024-01-29T02:12:47.100Z,3.60
2024-01-29T02:12:57.930Z,3.70
2024-01-29T02:13:08.515Z,3.70
2024-01-29T02:13:19.439Z,3.80
2024-01-29T02:13:30.204Z,3.60
2024-01-29T02:13:41.259Z,3.60
2024-01-29T02:13:52.208Z,3.60
2024-01-29T02:14:02.982Z,3.50
2024-01-29T02:14:14.022Z,3.30
2024-01-29T02:14:25.000Z,3.20
2024-01-29T02:14:35.781Z,3.50
2024-01-29T02:14:46.813Z,3.60
2024-01-29T02:14:57.784Z,3.40
2024-01-29T02:15:08.557Z,3.50
2024-01-29T02:15:19.619Z,3.60
2024-01-29T02:15:30.581Z,3.70
2024-01-29T02:15:41.403Z,3.70
2024-01-29T02:15:51.886Z,3.60
2024-01-29T02:16:02.869Z,3.60
2024-01-29T02:16:13.719Z,3.40
2024-01-29T02:16:24.207Z,3.70
2024-01-29T02:16:35.161Z,3.80
2024-01-29T02:16:45.925Z,3.90
2024-01-29T02:16:56.976Z,3.70
2024-01-29T02:17:07.938Z,3.70
2024-01-29T02:17:18.741Z,3.80
2024-01-29T02:17:29.806Z,3.80
2024-01-29T02:17:40.791Z,3.60
2024-01-29T02:17:51.581Z,3.60
2024-01-29T02:18:02.132Z,3.50
2024-01-29T02:18:13.055Z,3.60
2024-01-29T02:18:23.966Z,3.60
2024-01-29T02:18:34.508Z,3.40
2024-01-29T02:18:45.492Z,3.50
2024-01-29T02:18:56.429Z,3.40
2024-01-29T02:19:07.097Z,3.50
2024-01-29T02:19:17.870Z,3.40
2024-01-29T02:19:28.332Z,3.40
2024-01-29T02:19:39.115Z,3.40
2024-01-29T02:19:49.853Z,3.70
2024-01-29T02:20:00.818Z,3.80
2024-01-29T02:20:11.319Z,3.70
2024-01-29T02:20:22.276Z,3.60
2024-01-29T02:20:33.038Z,3.60
2024-01-29T02:20:44.081Z,3.50
2024-01-29T02:20:55.048Z,3.50
2024-01-29T02:21:05.817Z,3.60
2024-01-29T02:21:16.858Z,3.50
2024-01-29T02:21:27.861Z,3.50
2024-01-29T02:21:38.676Z,3.60
2024-01-29T02:21:49.168Z,3.80
2024-01-29T02:22:00.261Z,3.50
2024-01-29T02:22:11.110Z,3.80
2024-01-29T02:22:22.147Z,3.80
2024-01-29T02:22:33.108Z,3.80
2024-01-29T02:22:43.881Z,3.60
2024-01-29T02:22:54.951Z,3.60
2024-01-29T02:23:05.913Z,3.40
2024-01-29T02:23:16.679Z,3.30
2024-01-29T02:23:27.731Z,3.40
2024-01-29T02:23:38.698Z,3.40
2024-01-29T02:23:49.460Z,3.30
2024-01-29T02:24:00.512Z,3.40
2024-01-29T02:24:11.486Z,3.30
2024-01-29T02:24:22.288Z,3.40
2024-01-29T02:24:33.371Z,3.40
2024-01-29T02:24:44.340Z,3.20
2024-01-29T02:24:55.094Z,3.40